sensor_id;sensor_type;location;lat;lon;timestamp;temperature;humidity
31867;DHT22;18431;45.580;-122.680;2022-08-16T00:00:46;25.10;51.90
31867;DHT22;18431;45.580;-122.680;2022-08-16T00:03:17;25.10;51.70
31867;DHT22;18431;45.580;-122.680;2022-08-16T00:05:47;25.20;51.50
31867;DHT22;18431;45.580;-122.680;2022-08-16T00:08:17;25.20;51.30
31867;DHT22;18431;45.580;-122.680;2022-08-16T00:10:47;25.30;51.10
31867;DHT22;18431;45.580;-122.680;2022-08-16T00:13:18;25.30;51.00
31867;DHT22;18431;45.580;-122.680;2022-08-16T00:15:49;25.40;50.80
31867;DHT22;18431;45.580;-122.680;2022-08-16T00:18:20;25.50;50.70
31867;DHT22;18431;45.580;-122.680;2022-08-16T00:20:50;25.40;50.60
31867;DHT22;18431;45.580;-122.680;2022-08-16T00:23:20;25.40;50.70
31867;DHT22;18431;45.580;-122.680;2022-08-16T00:25:50;25.30;50.80
31867;DHT22;18431;45.580;-122.680;2022-08-16T00:28:19;25.20;50.90
31867;DHT22;18431;45.580;-122.680;2022-08-16T00:30:49;25.20;50.90
31867;DHT22;18431;45.580;-122.680;2022-08-16T00:33:19;25.20;50.70
31867;DHT22;18431;45.580;-122.680;2022-08-16T00:35:49;25.30;50.60
31867;DHT22;18431;45.580;-122.680;2022-08-16T00:38:19;25.30;50.60
31867;DHT22;18431;45.580;-122.680;2022-08-16T00:40:51;25.40;50.70
31867;DHT22;18431;45.580;-122.680;2022-08-16T00:43:24;25.50;50.70
31867;DHT22;18431;45.580;-122.680;2022-08-16T00:46:05;25.50;50.50
31867;DHT22;18431;45.580;-122.680;2022-08-16T00:48:30;25.40;50.60
31867;DHT22;18431;45.580;-122.680;2022-08-16T00:51:01;25.30;50.70
31867;DHT22;18431;45.580;-122.680;2022-08-16T00:53:31;25.20;50.80
31867;DHT22;18431;45.580;-122.680;2022-08-16T00:56:04;25.10;50.70
31867;DHT22;18431;45.580;-122.680;2022-08-16T00:58:35;25.00;50.70
31867;DHT22;18431;45.580;-122.680;2022-08-16T01:01:07;24.90;50.80
31867;DHT22;18431;45.580;-122.680;2022-08-16T01:03:38;24.80;51.20
31867;DHT22;18431;45.580;-122.680;2022-08-16T01:06:14;24.90;51.20
31867;DHT22;18431;45.580;-122.680;2022-08-16T01:08:41;24.90;51.00
31867;DHT22;18431;45.580;-122.680;2022-08-16T01:13:55;25.10;51.10
31867;DHT22;18431;45.580;-122.680;2022-08-16T01:16:26;25.20;51.20
31867;DHT22;18431;45.580;-122.680;2022-08-16T01:19:23;25.30;50.80
31867;DHT22;18431;45.580;-122.680;2022-08-16T01:21:53;25.40;50.70
31867;DHT22;18431;45.580;-122.680;2022-08-16T01:27:03;25.50;50.80
31867;DHT22;18431;45.580;-122.680;2022-08-16T01:29:45;25.60;50.80
31867;DHT22;18431;45.580;-122.680;2022-08-16T01:32:10;25.60;50.50
31867;DHT22;18431;45.580;-122.680;2022-08-16T01:34:41;25.60;50.50
31867;DHT22;18431;45.580;-122.680;2022-08-16T01:37:12;25.50;50.40
31867;DHT22;18431;45.580;-122.680;2022-08-16T01:39:42;25.40;50.30
31867;DHT22;18431;45.580;-122.680;2022-08-16T01:42:13;25.30;50.30
31867;DHT22;18431;45.580;-122.680;2022-08-16T01:44:43;25.20;50.30
31867;DHT22;18431;45.580;-122.680;2022-08-16T01:47:14;25.00;50.30
31867;DHT22;18431;45.580;-122.680;2022-08-16T01:49:44;24.90;50.30
31867;DHT22;18431;45.580;-122.680;2022-08-16T01:52:15;24.80;50.40
31867;DHT22;18431;45.580;-122.680;2022-08-16T01:54:46;24.80;51.20
31867;DHT22;18431;45.580;-122.680;2022-08-16T01:57:16;24.80;50.90
31867;DHT22;18431;45.580;-122.680;2022-08-16T01:59:48;24.90;51.20
31867;DHT22;18431;45.580;-122.680;2022-08-16T02:02:17;25.00;51.20
31867;DHT22;18431;45.580;-122.680;2022-08-16T02:04:47;25.10;51.20
31867;DHT22;18431;45.580;-122.680;2022-08-16T02:07:19;25.20;51.20
31867;DHT22;18431;45.580;-122.680;2022-08-16T02:09:49;25.30;51.10
31867;DHT22;18431;45.580;-122.680;2022-08-16T02:12:20;25.30;51.20
31867;DHT22;18431;45.580;-122.680;2022-08-16T02:14:50;25.40;51.20
31867;DHT22;18431;45.580;-122.680;2022-08-16T02:17:20;25.50;50.80
31867;DHT22;18431;45.580;-122.680;2022-08-16T02:19:51;25.50;50.50
31867;DHT22;18431;45.580;-122.680;2022-08-16T02:22:23;25.60;50.40
31867;DHT22;18431;45.580;-122.680;2022-08-16T02:24:53;25.60;50.20
31867;DHT22;18431;45.580;-122.680;2022-08-16T02:27:22;25.50;50.10
31867;DHT22;18431;45.580;-122.680;2022-08-16T02:29:54;25.30;49.80
31867;DHT22;18431;45.580;-122.680;2022-08-16T02:32:24;25.20;49.90
31867;DHT22;18431;45.580;-122.680;2022-08-16T02:34:53;25.10;50.00
31867;DHT22;18431;45.580;-122.680;2022-08-16T02:37:23;24.90;50.10
31867;DHT22;18431;45.580;-122.680;2022-08-16T02:39:55;24.80;50.50
31867;DHT22;18431;45.580;-122.680;2022-08-16T02:42:24;24.80;51.20
31867;DHT22;18431;45.580;-122.680;2022-08-16T02:44:54;24.90;51.60
31867;DHT22;18431;45.580;-122.680;2022-08-16T02:47:24;24.90;51.70
31867;DHT22;18431;45.580;-122.680;2022-08-16T02:49:54;25.10;51.90
31867;DHT22;18431;45.580;-122.680;2022-08-16T02:52:24;25.20;52.00
31867;DHT22;18431;45.580;-122.680;2022-08-16T02:54:54;25.20;52.00
31867;DHT22;18431;45.580;-122.680;2022-08-16T02:57:25;25.30;52.10
31867;DHT22;18431;45.580;-122.680;2022-08-16T02:59:55;25.40;52.20
31867;DHT22;18431;45.580;-122.680;2022-08-16T03:02:25;25.40;52.10
31867;DHT22;18431;45.580;-122.680;2022-08-16T03:04:57;25.50;52.30
31867;DHT22;18431;45.580;-122.680;2022-08-16T03:07:26;25.50;52.20
31867;DHT22;18431;45.580;-122.680;2022-08-16T03:09:56;25.60;52.20
31867;DHT22;18431;45.580;-122.680;2022-08-16T03:12:26;25.70;52.20
31867;DHT22;18431;45.580;-122.680;2022-08-16T03:14:56;25.70;52.20
31867;DHT22;18431;45.580;-122.680;2022-08-16T03:17:26;25.70;51.80
31867;DHT22;18431;45.580;-122.680;2022-08-16T03:19:56;25.60;51.40
31867;DHT22;18431;45.580;-122.680;2022-08-16T03:22:26;25.50;50.80
31867;DHT22;18431;45.580;-122.680;2022-08-16T03:24:57;25.30;50.60
31867;DHT22;18431;45.580;-122.680;2022-08-16T03:27:27;25.20;50.50
31867;DHT22;18431;45.580;-122.680;2022-08-16T03:30:00;25.10;50.60
31867;DHT22;18431;45.580;-122.680;2022-08-16T03:32:30;24.90;50.50
31867;DHT22;18431;45.580;-122.680;2022-08-16T03:35:00;24.90;51.20
31867;DHT22;18431;45.580;-122.680;2022-08-16T03:37:30;24.90;51.00
31867;DHT22;18431;45.580;-122.680;2022-08-16T03:40:00;25.00;51.50
31867;DHT22;18431;45.580;-122.680;2022-08-16T03:42:30;25.10;51.60
31867;DHT22;18431;45.580;-122.680;2022-08-16T03:45:00;25.20;51.70
31867;DHT22;18431;45.580;-122.680;2022-08-16T03:47:30;25.30;51.80
31867;DHT22;18431;45.580;-122.680;2022-08-16T03:50:00;25.30;51.90
31867;DHT22;18431;45.580;-122.680;2022-08-16T03:52:30;25.40;51.90
31867;DHT22;18431;45.580;-122.680;2022-08-16T03:55:02;25.50;52.20
31867;DHT22;18431;45.580;-122.680;2022-08-16T03:57:31;25.50;51.70
31867;DHT22;18431;45.580;-122.680;2022-08-16T04:00:10;25.60;51.40
31867;DHT22;18431;45.580;-122.680;2022-08-16T04:02:36;25.70;51.10
31867;DHT22;18431;45.580;-122.680;2022-08-16T04:05:07;25.70;50.80
31867;DHT22;18431;45.580;-122.680;2022-08-16T04:07:37;25.80;50.70
31867;DHT22;18431;45.580;-122.680;2022-08-16T04:10:08;25.90;50.60
31867;DHT22;18431;45.580;-122.680;2022-08-16T04:12:39;25.90;50.30
31867;DHT22;18431;45.580;-122.680;2022-08-16T04:15:11;26.00;50.10
31867;DHT22;18431;45.580;-122.680;2022-08-16T04:17:41;26.00;50.00
31867;DHT22;18431;45.580;-122.680;2022-08-16T04:20:12;26.10;49.90
31867;DHT22;18431;45.580;-122.680;2022-08-16T04:22:43;26.10;49.90
31867;DHT22;18431;45.580;-122.680;2022-08-16T04:25:13;26.00;49.60
31867;DHT22;18431;45.580;-122.680;2022-08-16T04:27:43;25.80;49.40
31867;DHT22;18431;45.580;-122.680;2022-08-16T04:30:15;25.60;49.20
31867;DHT22;18431;45.580;-122.680;2022-08-16T04:32:45;25.50;49.30
31867;DHT22;18431;45.580;-122.680;2022-08-16T04:35:17;25.30;49.30
31867;DHT22;18431;45.580;-122.680;2022-08-16T04:37:47;25.20;50.40
31867;DHT22;18431;45.580;-122.680;2022-08-16T04:40:20;25.20;50.40
31867;DHT22;18431;45.580;-122.680;2022-08-16T04:42:49;25.30;50.70
31867;DHT22;18431;45.580;-122.680;2022-08-16T04:45:19;25.30;50.70
31867;DHT22;18431;45.580;-122.680;2022-08-16T04:47:49;25.40;50.90
31867;DHT22;18431;45.580;-122.680;2022-08-16T04:50:23;25.50;51.00
31867;DHT22;18431;45.580;-122.680;2022-08-16T04:52:55;25.60;51.20
31867;DHT22;18431;45.580;-122.680;2022-08-16T04:55:26;25.60;51.30
31867;DHT22;18431;45.580;-122.680;2022-08-16T04:57:56;25.70;51.40
31867;DHT22;18431;45.580;-122.680;2022-08-16T05:00:30;25.70;51.30
31867;DHT22;18431;45.580;-122.680;2022-08-16T05:03:04;25.80;50.90
31867;DHT22;18431;45.580;-122.680;2022-08-16T05:05:34;25.90;50.60
31867;DHT22;18431;45.580;-122.680;2022-08-16T05:08:06;25.90;50.30
31867;DHT22;18431;45.580;-122.680;2022-08-16T05:10:36;26.00;50.20
31867;DHT22;18431;45.580;-122.680;2022-08-16T05:13:07;26.00;50.00
31867;DHT22;18431;45.580;-122.680;2022-08-16T05:15:37;26.10;49.80
31867;DHT22;18431;45.580;-122.680;2022-08-16T05:18:06;26.10;49.70
31867;DHT22;18431;45.580;-122.680;2022-08-16T05:20:38;26.20;50.00
31867;DHT22;18431;45.580;-122.680;2022-08-16T05:23:08;26.20;50.30
31867;DHT22;18431;45.580;-122.680;2022-08-16T05:25:38;26.20;50.30
31867;DHT22;18431;45.580;-122.680;2022-08-16T05:28:08;26.20;50.50
31867;DHT22;18431;45.580;-122.680;2022-08-16T05:30:39;26.30;50.80
31867;DHT22;18431;45.580;-122.680;2022-08-16T05:33:09;26.30;51.00
31867;DHT22;18431;45.580;-122.680;2022-08-16T05:35:40;26.30;50.90
31867;DHT22;18431;45.580;-122.680;2022-08-16T05:38:10;26.30;50.40
31867;DHT22;18431;45.580;-122.680;2022-08-16T05:40:40;26.30;50.30
31867;DHT22;18431;45.580;-122.680;2022-08-16T05:43:10;26.30;50.10
31867;DHT22;18431;45.580;-122.680;2022-08-16T05:45:40;26.40;50.00
31867;DHT22;18431;45.580;-122.680;2022-08-16T05:48:11;26.40;49.80
31867;DHT22;18431;45.580;-122.680;2022-08-16T05:50:42;26.40;49.70
31867;DHT22;18431;45.580;-122.680;2022-08-16T05:53:12;26.40;49.70
31867;DHT22;18431;45.580;-122.680;2022-08-16T05:55:42;26.40;50.00
31867;DHT22;18431;45.580;-122.680;2022-08-16T05:58:12;26.40;50.00
31867;DHT22;18431;45.580;-122.680;2022-08-16T06:00:42;26.50;49.80
31867;DHT22;18431;45.580;-122.680;2022-08-16T06:03:14;26.50;49.70
31867;DHT22;18431;45.580;-122.680;2022-08-16T06:05:44;26.50;49.60
31867;DHT22;18431;45.580;-122.680;2022-08-16T06:08:14;26.50;49.50
31867;DHT22;18431;45.580;-122.680;2022-08-16T06:10:44;26.50;49.40
31867;DHT22;18431;45.580;-122.680;2022-08-16T06:13:14;26.50;49.30
31867;DHT22;18431;45.580;-122.680;2022-08-16T06:15:43;26.50;49.30
31867;DHT22;18431;45.580;-122.680;2022-08-16T06:18:13;26.50;49.40
31867;DHT22;18431;45.580;-122.680;2022-08-16T06:20:43;26.50;49.50
31867;DHT22;18431;45.580;-122.680;2022-08-16T06:23:13;26.50;49.60
31867;DHT22;18431;45.580;-122.680;2022-08-16T06:25:43;26.50;49.80
31867;DHT22;18431;45.580;-122.680;2022-08-16T06:28:13;26.50;50.00
31867;DHT22;18431;45.580;-122.680;2022-08-16T06:30:43;26.50;50.10
31867;DHT22;18431;45.580;-122.680;2022-08-16T06:33:15;26.50;50.30
31867;DHT22;18431;45.580;-122.680;2022-08-16T06:35:44;26.50;50.60
31867;DHT22;18431;45.580;-122.680;2022-08-16T06:38:14;26.50;50.70
31867;DHT22;18431;45.580;-122.680;2022-08-16T06:40:44;26.50;50.80
31867;DHT22;18431;45.580;-122.680;2022-08-16T06:43:15;26.50;50.60
31867;DHT22;18431;45.580;-122.680;2022-08-16T06:45:48;26.50;50.30
31867;DHT22;18431;45.580;-122.680;2022-08-16T06:48:18;26.50;50.10
31867;DHT22;18431;45.580;-122.680;2022-08-16T06:50:48;26.50;50.00
31867;DHT22;18431;45.580;-122.680;2022-08-16T06:53:20;26.50;49.90
31867;DHT22;18431;45.580;-122.680;2022-08-16T06:55:50;26.50;49.80
31867;DHT22;18431;45.580;-122.680;2022-08-16T06:58:22;26.50;49.70
31867;DHT22;18431;45.580;-122.680;2022-08-16T07:00:52;26.50;49.50
31867;DHT22;18431;45.580;-122.680;2022-08-16T07:03:22;26.50;49.70
31867;DHT22;18431;45.580;-122.680;2022-08-16T07:05:51;26.50;49.70
31867;DHT22;18431;45.580;-122.680;2022-08-16T07:08:22;26.50;49.60
31867;DHT22;18431;45.580;-122.680;2022-08-16T07:10:52;26.50;49.40
31867;DHT22;18431;45.580;-122.680;2022-08-16T07:13:22;26.50;49.30
31867;DHT22;18431;45.580;-122.680;2022-08-16T07:15:52;26.60;49.20
31867;DHT22;18431;45.580;-122.680;2022-08-16T07:18:22;26.60;49.10
31867;DHT22;18431;45.580;-122.680;2022-08-16T07:20:52;26.60;49.40
31867;DHT22;18431;45.580;-122.680;2022-08-16T07:23:22;26.60;49.40
31867;DHT22;18431;45.580;-122.680;2022-08-16T07:25:53;26.60;49.40
31867;DHT22;18431;45.580;-122.680;2022-08-16T07:28:23;26.60;49.30
31867;DHT22;18431;45.580;-122.680;2022-08-16T07:30:53;26.60;49.20
31867;DHT22;18431;45.580;-122.680;2022-08-16T07:33:23;26.60;49.10
31867;DHT22;18431;45.580;-122.680;2022-08-16T07:35:53;26.60;49.30
31867;DHT22;18431;45.580;-122.680;2022-08-16T07:38:23;26.60;49.40
31867;DHT22;18431;45.580;-122.680;2022-08-16T07:40:55;26.60;49.20
31867;DHT22;18431;45.580;-122.680;2022-08-16T07:43:25;26.60;49.10
31867;DHT22;18431;45.580;-122.680;2022-08-16T07:45:55;26.60;48.90
31867;DHT22;18431;45.580;-122.680;2022-08-16T07:48:26;26.60;48.90
31867;DHT22;18431;45.580;-122.680;2022-08-16T07:50:56;26.60;48.80
31867;DHT22;18431;45.580;-122.680;2022-08-16T07:53:27;26.60;48.90
31867;DHT22;18431;45.580;-122.680;2022-08-16T07:55:58;26.60;49.00
31867;DHT22;18431;45.580;-122.680;2022-08-16T07:58:28;26.60;49.10
31867;DHT22;18431;45.580;-122.680;2022-08-16T08:00:58;26.60;49.10
31867;DHT22;18431;45.580;-122.680;2022-08-16T08:03:29;26.60;49.20
31867;DHT22;18431;45.580;-122.680;2022-08-16T08:05:58;26.60;49.30
31867;DHT22;18431;45.580;-122.680;2022-08-16T08:08:40;26.60;49.30
31867;DHT22;18431;45.580;-122.680;2022-08-16T08:11:11;26.60;49.20
31867;DHT22;18431;45.580;-122.680;2022-08-16T08:13:40;26.60;49.10
31867;DHT22;18431;45.580;-122.680;2022-08-16T08:16:10;26.60;49.10
31867;DHT22;18431;45.580;-122.680;2022-08-16T08:18:40;26.60;49.00
31867;DHT22;18431;45.580;-122.680;2022-08-16T08:21:10;26.60;48.90
31867;DHT22;18431;45.580;-122.680;2022-08-16T08:23:40;26.60;49.10
31867;DHT22;18431;45.580;-122.680;2022-08-16T08:26:10;26.70;49.10
31867;DHT22;18431;45.580;-122.680;2022-08-16T08:28:40;26.70;49.10
31867;DHT22;18431;45.580;-122.680;2022-08-16T08:31:10;26.70;48.90
31867;DHT22;18431;45.580;-122.680;2022-08-16T08:33:40;26.70;48.80
31867;DHT22;18431;45.580;-122.680;2022-08-16T08:36:13;26.70;49.00
31867;DHT22;18431;45.580;-122.680;2022-08-16T08:38:43;26.70;48.90
31867;DHT22;18431;45.580;-122.680;2022-08-16T08:41:13;26.70;49.00
31867;DHT22;18431;45.580;-122.680;2022-08-16T08:43:43;26.70;48.90
31867;DHT22;18431;45.580;-122.680;2022-08-16T08:46:14;26.70;48.90
31867;DHT22;18431;45.580;-122.680;2022-08-16T08:48:43;26.70;48.80
31867;DHT22;18431;45.580;-122.680;2022-08-16T08:51:14;26.70;48.70
31867;DHT22;18431;45.580;-122.680;2022-08-16T08:53:45;26.70;48.80
31867;DHT22;18431;45.580;-122.680;2022-08-16T08:56:16;26.70;48.80
31867;DHT22;18431;45.580;-122.680;2022-08-16T08:58:45;26.70;49.00
31867;DHT22;18431;45.580;-122.680;2022-08-16T09:01:19;26.70;49.10
31867;DHT22;18431;45.580;-122.680;2022-08-16T09:03:48;26.70;49.30
31867;DHT22;18431;45.580;-122.680;2022-08-16T09:06:19;26.70;49.40
31867;DHT22;18431;45.580;-122.680;2022-08-16T09:08:49;26.70;49.70
31867;DHT22;18431;45.580;-122.680;2022-08-16T09:11:18;26.70;49.80
31867;DHT22;18431;45.580;-122.680;2022-08-16T09:13:48;26.70;50.00
31867;DHT22;18431;45.580;-122.680;2022-08-16T09:16:19;26.70;50.00
31867;DHT22;18431;45.580;-122.680;2022-08-16T09:18:49;26.70;50.00
31867;DHT22;18431;45.580;-122.680;2022-08-16T09:21:18;26.70;49.80
31867;DHT22;18431;45.580;-122.680;2022-08-16T09:23:48;26.70;49.60
31867;DHT22;18431;45.580;-122.680;2022-08-16T09:26:18;26.70;49.40
31867;DHT22;18431;45.580;-122.680;2022-08-16T09:28:48;26.70;49.20
31867;DHT22;18431;45.580;-122.680;2022-08-16T09:31:18;26.70;49.20
31867;DHT22;18431;45.580;-122.680;2022-08-16T09:33:48;26.70;49.20
31867;DHT22;18431;45.580;-122.680;2022-08-16T09:36:20;26.70;48.90
31867;DHT22;18431;45.580;-122.680;2022-08-16T09:38:50;26.70;48.90
31867;DHT22;18431;45.580;-122.680;2022-08-16T09:41:20;26.70;49.00
31867;DHT22;18431;45.580;-122.680;2022-08-16T09:43:50;26.70;49.00
31867;DHT22;18431;45.580;-122.680;2022-08-16T09:46:19;26.70;49.00
31867;DHT22;18431;45.580;-122.680;2022-08-16T09:48:51;26.70;49.00
31867;DHT22;18431;45.580;-122.680;2022-08-16T09:51:22;26.70;48.90
31867;DHT22;18431;45.580;-122.680;2022-08-16T09:53:54;26.70;48.90
31867;DHT22;18431;45.580;-122.680;2022-08-16T09:56:32;26.70;49.00
31867;DHT22;18431;45.580;-122.680;2022-08-16T09:59:04;26.70;49.00
31867;DHT22;18431;45.580;-122.680;2022-08-16T10:01:36;26.70;49.00
31867;DHT22;18431;45.580;-122.680;2022-08-16T10:04:06;26.70;48.80
31867;DHT22;18431;45.580;-122.680;2022-08-16T10:06:36;26.70;48.80
31867;DHT22;18431;45.580;-122.680;2022-08-16T10:09:07;26.70;48.70
31867;DHT22;18431;45.580;-122.680;2022-08-16T10:11:38;26.70;48.80
31867;DHT22;18431;45.580;-122.680;2022-08-16T10:14:25;26.70;48.80
31867;DHT22;18431;45.580;-122.680;2022-08-16T10:17:00;26.70;48.70
31867;DHT22;18431;45.580;-122.680;2022-08-16T10:19:30;26.70;48.70
31867;DHT22;18431;45.580;-122.680;2022-08-16T10:22:00;26.70;48.70
31867;DHT22;18431;45.580;-122.680;2022-08-16T10:24:30;26.70;48.60
31867;DHT22;18431;45.580;-122.680;2022-08-16T10:27:00;26.70;48.60
31867;DHT22;18431;45.580;-122.680;2022-08-16T10:29:30;26.70;48.60
31867;DHT22;18431;45.580;-122.680;2022-08-16T10:32:00;26.70;48.60
31867;DHT22;18431;45.580;-122.680;2022-08-16T10:34:30;26.70;48.60
31867;DHT22;18431;45.580;-122.680;2022-08-16T10:37:00;26.70;48.70
31867;DHT22;18431;45.580;-122.680;2022-08-16T10:39:30;26.70;48.60
31867;DHT22;18431;45.580;-122.680;2022-08-16T10:42:00;26.70;48.50
31867;DHT22;18431;45.580;-122.680;2022-08-16T10:44:31;26.70;48.40
31867;DHT22;18431;45.580;-122.680;2022-08-16T10:47:01;26.70;48.60
31867;DHT22;18431;45.580;-122.680;2022-08-16T10:49:31;26.70;48.60
31867;DHT22;18431;45.580;-122.680;2022-08-16T10:52:01;26.70;48.50
31867;DHT22;18431;45.580;-122.680;2022-08-16T10:54:31;26.70;48.60
31867;DHT22;18431;45.580;-122.680;2022-08-16T10:57:02;26.70;48.70
31867;DHT22;18431;45.580;-122.680;2022-08-16T10:59:33;26.70;48.90
31867;DHT22;18431;45.580;-122.680;2022-08-16T11:02:03;26.70;49.10
31867;DHT22;18431;45.580;-122.680;2022-08-16T11:04:33;26.70;49.20
31867;DHT22;18431;45.580;-122.680;2022-08-16T11:07:04;26.70;49.40
31867;DHT22;18431;45.580;-122.680;2022-08-16T11:09:34;26.70;49.70
31867;DHT22;18431;45.580;-122.680;2022-08-16T11:12:04;26.70;49.60
31867;DHT22;18431;45.580;-122.680;2022-08-16T11:14:34;26.70;49.50
31867;DHT22;18431;45.580;-122.680;2022-08-16T11:17:05;26.70;49.40
31867;DHT22;18431;45.580;-122.680;2022-08-16T11:19:36;26.70;49.20
31867;DHT22;18431;45.580;-122.680;2022-08-16T11:22:07;26.70;49.10
31867;DHT22;18431;45.580;-122.680;2022-08-16T11:24:37;26.70;48.90
31867;DHT22;18431;45.580;-122.680;2022-08-16T11:27:08;26.70;48.80
31867;DHT22;18431;45.580;-122.680;2022-08-16T11:29:39;26.70;48.70
31867;DHT22;18431;45.580;-122.680;2022-08-16T11:32:09;26.70;48.40
31867;DHT22;18431;45.580;-122.680;2022-08-16T11:34:39;26.70;48.60
31867;DHT22;18431;45.580;-122.680;2022-08-16T11:37:08;26.70;48.60
31867;DHT22;18431;45.580;-122.680;2022-08-16T11:39:38;26.70;48.60
31867;DHT22;18431;45.580;-122.680;2022-08-16T11:42:08;26.70;48.60
31867;DHT22;18431;45.580;-122.680;2022-08-16T11:44:40;26.70;48.70
31867;DHT22;18431;45.580;-122.680;2022-08-16T11:47:09;26.70;48.70
31867;DHT22;18431;45.580;-122.680;2022-08-16T11:49:40;26.70;48.60
31867;DHT22;18431;45.580;-122.680;2022-08-16T11:52:10;26.70;48.50
31867;DHT22;18431;45.580;-122.680;2022-08-16T11:54:40;26.70;48.60
31867;DHT22;18431;45.580;-122.680;2022-08-16T11:57:10;26.70;48.60
31867;DHT22;18431;45.580;-122.680;2022-08-16T11:59:41;26.70;48.60
31867;DHT22;18431;45.580;-122.680;2022-08-16T12:02:11;26.70;48.10
31867;DHT22;18431;45.580;-122.680;2022-08-16T12:04:40;26.70;48.50
31867;DHT22;18431;45.580;-122.680;2022-08-16T12:07:12;26.70;48.50
31867;DHT22;18431;45.580;-122.680;2022-08-16T12:09:44;26.70;48.60
31867;DHT22;18431;45.580;-122.680;2022-08-16T12:12:13;26.70;48.60
31867;DHT22;18431;45.580;-122.680;2022-08-16T12:14:43;26.70;48.50
31867;DHT22;18431;45.580;-122.680;2022-08-16T12:17:13;26.80;48.70
31867;DHT22;18431;45.580;-122.680;2022-08-16T12:19:43;26.70;48.70
31867;DHT22;18431;45.580;-122.680;2022-08-16T12:22:13;26.70;48.90
31867;DHT22;18431;45.580;-122.680;2022-08-16T12:24:44;26.70;49.10
31867;DHT22;18431;45.580;-122.680;2022-08-16T12:27:14;26.70;49.20
31867;DHT22;18431;45.580;-122.680;2022-08-16T12:29:44;26.70;49.30
31867;DHT22;18431;45.580;-122.680;2022-08-16T12:32:14;26.70;49.50
31867;DHT22;18431;45.580;-122.680;2022-08-16T12:34:44;26.70;49.50
31867;DHT22;18431;45.580;-122.680;2022-08-16T12:37:14;26.70;49.40
31867;DHT22;18431;45.580;-122.680;2022-08-16T12:39:45;26.70;49.20
31867;DHT22;18431;45.580;-122.680;2022-08-16T12:42:16;26.70;49.20
31867;DHT22;18431;45.580;-122.680;2022-08-16T12:44:49;26.70;48.90
31867;DHT22;18431;45.580;-122.680;2022-08-16T12:47:19;26.70;48.90
31867;DHT22;18431;45.580;-122.680;2022-08-16T12:50:07;26.70;48.80
31867;DHT22;18431;45.580;-122.680;2022-08-16T12:52:39;26.70;48.80
31867;DHT22;18431;45.580;-122.680;2022-08-16T12:55:10;26.70;48.60
31867;DHT22;18431;45.580;-122.680;2022-08-16T12:57:39;26.70;48.80
31867;DHT22;18431;45.580;-122.680;2022-08-16T13:00:12;26.70;48.70
31867;DHT22;18431;45.580;-122.680;2022-08-16T13:02:45;26.70;48.70
31867;DHT22;18431;45.580;-122.680;2022-08-16T13:05:16;26.70;48.60
31867;DHT22;18431;45.580;-122.680;2022-08-16T13:07:46;26.70;48.70
31867;DHT22;18431;45.580;-122.680;2022-08-16T13:10:16;26.70;48.70
31867;DHT22;18431;45.580;-122.680;2022-08-16T13:12:50;26.70;48.70
31867;DHT22;18431;45.580;-122.680;2022-08-16T13:15:25;26.70;48.70
31867;DHT22;18431;45.580;-122.680;2022-08-16T13:17:55;26.70;48.70
31867;DHT22;18431;45.580;-122.680;2022-08-16T13:20:26;26.70;48.60
31867;DHT22;18431;45.580;-122.680;2022-08-16T13:23:02;26.70;48.70
31867;DHT22;18431;45.580;-122.680;2022-08-16T13:25:34;26.70;48.70
31867;DHT22;18431;45.580;-122.680;2022-08-16T13:28:04;26.70;48.60
31867;DHT22;18431;45.580;-122.680;2022-08-16T13:30:37;26.70;48.70
31867;DHT22;18431;45.580;-122.680;2022-08-16T13:33:06;26.70;48.70
31867;DHT22;18431;45.580;-122.680;2022-08-16T13:35:37;26.70;48.70
31867;DHT22;18431;45.580;-122.680;2022-08-16T13:38:07;26.70;48.70
31867;DHT22;18431;45.580;-122.680;2022-08-16T13:40:37;26.70;48.70
31867;DHT22;18431;45.580;-122.680;2022-08-16T13:43:09;26.70;48.70
31867;DHT22;18431;45.580;-122.680;2022-08-16T13:45:41;26.70;48.50
31867;DHT22;18431;45.580;-122.680;2022-08-16T13:48:11;26.70;48.50
31867;DHT22;18431;45.580;-122.680;2022-08-16T13:50:41;26.70;48.60
31867;DHT22;18431;45.580;-122.680;2022-08-16T13:53:11;26.70;48.60
31867;DHT22;18431;45.580;-122.680;2022-08-16T13:55:41;26.70;48.70
31867;DHT22;18431;45.580;-122.680;2022-08-16T13:58:11;26.70;48.60
31867;DHT22;18431;45.580;-122.680;2022-08-16T14:00:41;26.70;48.40
31867;DHT22;18431;45.580;-122.680;2022-08-16T14:03:11;26.70;48.60
31867;DHT22;18431;45.580;-122.680;2022-08-16T14:05:41;26.70;48.70
31867;DHT22;18431;45.580;-122.680;2022-08-16T14:08:11;26.70;48.70
31867;DHT22;18431;45.580;-122.680;2022-08-16T14:10:41;26.70;48.70
31867;DHT22;18431;45.580;-122.680;2022-08-16T14:13:11;26.70;48.60
31867;DHT22;18431;45.580;-122.680;2022-08-16T14:15:41;26.60;48.50
31867;DHT22;18431;45.580;-122.680;2022-08-16T14:18:11;26.70;48.70
31867;DHT22;18431;45.580;-122.680;2022-08-16T14:20:41;26.60;48.60
31867;DHT22;18431;45.580;-122.680;2022-08-16T14:23:11;26.60;48.60
31867;DHT22;18431;45.580;-122.680;2022-08-16T14:25:41;26.60;48.60
31867;DHT22;18431;45.580;-122.680;2022-08-16T14:28:11;26.60;48.70
31867;DHT22;18431;45.580;-122.680;2022-08-16T14:30:41;26.60;48.90
31867;DHT22;18431;45.580;-122.680;2022-08-16T14:33:10;26.60;48.90
31867;DHT22;18431;45.580;-122.680;2022-08-16T14:35:41;26.60;49.10
31867;DHT22;18431;45.580;-122.680;2022-08-16T14:38:10;26.60;49.30
31867;DHT22;18431;45.580;-122.680;2022-08-16T14:40:40;26.60;49.40
31867;DHT22;18431;45.580;-122.680;2022-08-16T14:43:10;26.60;49.50
31867;DHT22;18431;45.580;-122.680;2022-08-16T14:45:40;26.60;49.40
31867;DHT22;18431;45.580;-122.680;2022-08-16T14:48:10;26.60;49.30
31867;DHT22;18431;45.580;-122.680;2022-08-16T14:50:40;26.60;49.10
31867;DHT22;18431;45.580;-122.680;2022-08-16T14:53:10;26.60;49.10
31867;DHT22;18431;45.580;-122.680;2022-08-16T14:55:40;26.60;49.00
31867;DHT22;18431;45.580;-122.680;2022-08-16T14:58:10;26.60;48.90
31867;DHT22;18431;45.580;-122.680;2022-08-16T15:00:41;26.60;49.00
31867;DHT22;18431;45.580;-122.680;2022-08-16T15:03:12;26.60;49.10
31867;DHT22;18431;45.580;-122.680;2022-08-16T15:05:43;26.60;49.10
31867;DHT22;18431;45.580;-122.680;2022-08-16T15:08:13;26.60;49.20
31867;DHT22;18431;45.580;-122.680;2022-08-16T15:10:44;26.60;49.30
31867;DHT22;18431;45.580;-122.680;2022-08-16T15:13:14;26.50;49.40